Flight Track Log - Related Links

Times and Time Zones

All times are in EDT time to prevent confusion due to time zone crossing. See the N731JP flight status page for this flight to view local times or setup timezone preferences in your user account.


Time Position Orientation Groundspeed Altitude Reporting Facility
EDT Latitude Longitude Course Direction KTS MPH feet Rate Location/Type
Sun 11:37:17 AM 42.2472 -83.6911 65° Northeast 127 146 2,400  Level Cleveland Center
Sun 11:38:17 AM 42.2714 -83.6475 53° Northeast 140 161 3,500 992 Climbing Cleveland Center
Sun 11:39:18 AM 42.2703 -83.6081 92° East 131 151 4,400 738 Climbing Cleveland Center
Sun 11:40:19 AM 42.2328 -83.6119 184° South 143 165 5,000 298 Climbing Cleveland Center
Sun 11:41:19 AM 42.1867 -83.6153 183° South 170 196 5,000  Level Cleveland Center
Sun 11:42:20 AM 42.1344 -83.6186 183° South 177 204 5,000  Level Cleveland Center
Sun 11:43:27 AM 42.0783 -83.6186 180° South 186 214 5,000  Level Cleveland Center
Sun 11:44:15 AM 42.0367 -83.6139 175° South 186 214 5,000 260 Level Cleveland Center
Sun 11:46:00 AM 41.9085 -83.5200 149° Southeast  Level FlightAware Approximate
Sun 11:53:00 AM 41.3539 -83.2688 171° South  Level FlightAware Approximate
Sun 11:54:00 AM 41.2698 -83.2516 171° South  Level FlightAware Approximate
Sun 11:55:00 AM 41.1857 -83.2344 171° South  Level FlightAware Approximate
Sun 11:56:00 AM 41.1016 -83.2173 171° South  Level FlightAware Approximate
Sun 11:57:00 AM 41.0175 -83.2002 171° South  Level FlightAware Approximate
Sun 11:58:00 AM 40.9332 -83.1850 172° South  Level FlightAware Approximate
Sun 11:58:51 AM 41.3542 -83.4794 172° South 171 197 9,000  Level Cleveland Center
Sun 11:59:00 AM 40.8804 -83.1755 172° South  Level FlightAware Approximate
Sun 11:59:51 AM 41.3064 -83.4747 176° South 176 203 9,000  Level Cleveland Center
Sun 12:00:00 PM 40.8275 -83.1661 172° South  Level FlightAware Approximate
Sun 12:00:51 PM 41.2586 -83.4642 171° South 181 208 9,000  Level Cleveland Center
Sun 12:01:00 PM 40.7747 -83.1566 172° South  Level FlightAware Approximate
Sun 12:01:51 PM 41.2108 -83.4567 173° South 181 208 9,000  Level Cleveland Center
Sun 12:02:00 PM 40.7219 -83.1472 172° South  Level FlightAware Approximate
Sun 12:02:51 PM 41.1633 -83.4433 168° South 181 208 9,000  Level Cleveland Center
Sun 12:03:00 PM 40.6691 -83.1378 172° South  Level FlightAware Approximate
Sun 12:03:51 PM 41.1133 -83.4358 174° South 181 208 9,000  Level Cleveland Center
Sun 12:04:51 PM 41.0719 -83.4228 167° South 181 208 9,000  Level Cleveland Center
Sun 12:05:51 PM 41.0222 -83.4097 169° South 181 208 9,000  Level Cleveland Center
Sun 12:06:51 PM 40.9744 -83.4050 176° South 181 208 9,000  Level Cleveland Center
Sun 12:07:51 PM 40.9269 -83.3892 166° South 181 208 9,000  Level Cleveland Center
Sun 12:08:51 PM 40.8792 -83.3761 168° South 181 208 9,000  Level Cleveland Center
Sun 12:09:41 PM 40.8328 -83.3614 166° South 179 206 9,000  Level Indianapolis Center
Sun 12:10:42 PM 40.7814 -83.3481 169° South 180 207 9,000  Level Indianapolis Center
Sun 12:11:44 PM 40.7306 -83.3353 169° South 183 211 9,000  Level Indianapolis Center
Sun 12:12:45 PM 40.6808 -83.3217 168° South 182 209 9,000  Level Indianapolis Center
Sun 12:13:46 PM 40.6306 -83.3078 168° South 184 212 9,000  Level Indianapolis Center
Sun 12:14:47 PM 40.5797 -83.2953 169° South 186 214 9,000  Level Indianapolis Center
Sun 12:15:49 PM 40.5292 -83.2814 168° South 185 213 9,000  Level Indianapolis Center
Sun 12:16:33 PM 40.4861 -83.2742 173° South 185 213 9,000  Level Indianapolis Center
Sun 12:17:28 PM 40.4411 -83.2611 168° South 183 211 9,000  Level Indianapolis Center
Sun 12:18:28 PM 40.3922 -83.2475 168° South 183 211 9,000  Level Indianapolis Center
Sun 12:19:41 PM 40.3306 -83.2317 169° South 182 209 9,000  Level Indianapolis Center
Sun 12:20:42 PM 40.2792 -83.2206 171° South 182 209 9,000  Level Indianapolis Center
Sun 12:21:37 PM 40.2342 -83.2075 168° South 184 212 9,000  Level Indianapolis Center
Sun 12:22:38 PM 40.1847 -83.1967 170° South 181 208 9,000  Level Indianapolis Center
Sun 12:23:39 PM 40.1356 -83.1831 168° South 181 208 9,000  Level Indianapolis Center
Sun 12:24:33 PM 40.0906 -83.1703 168° South 181 208 9,000  Level Indianapolis Center
Sun 12:25:34 PM 40.0394 -83.1564 168° South 186 214 9,000  Level Indianapolis Center
Sun 12:26:35 PM 39.9861 -83.1422 168° South 185 213 9,000  Level Indianapolis Center
Sun 12:27:30 PM 39.9389 -83.1319 171° South 186 214 9,000  Level Indianapolis Center
Sun 12:28:04 PM 39.9167 -83.1233 163° South 187 215 9,000  Level Indianapolis Center
Sun 12:28:37 PM 39.8839 -83.1147 169° South 184 212 9,000  Level Indianapolis Center
Sun 12:29:38 PM 39.8325 -83.1008 168° South 185 213 9,000  Level Indianapolis Center
Sun 12:30:39 PM 39.7794 -83.0869 169° South 186 214 9,000  Level Indianapolis Center
Sun 12:31:39 PM 39.7300 -83.0761 170° South 184 212 9,000  Level Indianapolis Center
Sun 12:32:10 PM 39.7144 -83.0706 165° South 184 212 9,000  Level Indianapolis Center
Sun 12:33:11 PM 39.6636 -83.0581 169° South 184 212 9,000  Level Indianapolis Center
Sun 12:34:12 PM 39.6031 -83.0453 171° South 184 212 9,000  Level Indianapolis Center
Sun 12:35:14 PM 39.5525 -83.0347 171° South 183 211 9,000  Level Indianapolis Center
Sun 12:36:15 PM 39.5022 -83.0225 169° South 185 213 9,000  Level Indianapolis Center
Sun 12:37:16 PM 39.4511 -83.0111 170° South 184 212 9,000  Level Indianapolis Center
Sun 12:38:18 PM 39.4003 -83.0000 170° South 185 213 9,000  Level Indianapolis Center
Sun 12:39:19 PM 39.3500 -82.9903 171° South 184 212 9,000  Level Indianapolis Center
Sun 12:40:20 PM 39.2994 -82.9800 171° South 183 211 9,000  Level Indianapolis Center
Sun 12:41:22 PM 39.2486 -82.9711 172° South 184 212 9,000  Level Indianapolis Center
Sun 12:42:23 PM 39.1989 -82.9603 170° South 183 211 9,000 49 Level Indianapolis Center
Sun 12:43:24 PM 39.1389 -82.9464 170° South 183 211 9,100  Climbing Indianapolis Center
Sun 12:44:26 PM 39.0872 -82.9336 169° South 188 216 9,000 -49 Descending Indianapolis Center
Sun 12:45:27 PM 39.0356 -82.9194 168° South 189 217 9,000  Level Indianapolis Center
Sun 12:46:28 PM 38.9839 -82.9069 169° South 189 217 9,000  Level Indianapolis Center
Sun 12:47:30 PM 38.9314 -82.8950 170° South 192 221 9,000  Level Indianapolis Center
Sun 12:48:31 PM 38.8800 -82.8806 168° South 190 219 9,000  Level Indianapolis Center
Sun 12:49:32 PM 38.8278 -82.8681 169° South 192 221 9,000  Level Indianapolis Center
Sun 12:50:34 PM 38.7764 -82.8558 169° South 187 215 9,000  Level Indianapolis Center
Sun 12:51:35 PM 38.7247 -82.8444 170° South 188 216 9,000  Level Indianapolis Center
Sun 12:52:36 PM 38.6725 -82.8306 168° South 190 219 9,000  Level Indianapolis Center
Sun 12:53:38 PM 38.6097 -82.8169 170° South 189 217 9,000  Level Indianapolis Center
Sun 12:54:39 PM 38.5575 -82.8039 169° South 190 219 9,000  Level Indianapolis Center
Sun 12:55:40 PM 38.5064 -82.7925 170° South 186 214 9,000  Level Indianapolis Center
Sun 12:56:42 PM 38.4539 -82.7822 171° South 190 219 9,000  Level Indianapolis Center
Sun 12:57:43 PM 38.4019 -82.7714 171° South 189 217 9,000 -98 Level Indianapolis Center
Sun 12:58:44 PM 38.3492 -82.7603 171° South 191 220 8,800 -393 Descending Indianapolis Center
Sun 12:59:45 PM 38.2939 -82.7492 171° South 199 229 8,200 -488 Descending Indianapolis Center
Sun 01:00:47 PM 38.2397 -82.7381 171° South 199 229 7,800 -439 Descending Indianapolis Center
Sun 01:01:48 PM 38.1850 -82.7258 170° South 199 229 7,300 -443 Descending Indianapolis Center
Sun 01:02:49 PM 38.1308 -82.7164 172° South 198 228 6,900 -146 Descending Indianapolis Center
Sun 01:03:51 PM 38.0694 -82.7033 170° South 192 221 7,000 -146 Climbing Indianapolis Center
Sun 01:04:52 PM 38.0203 -82.6933 171° South 182 209 6,600 -443 Descending Indianapolis Center
Sun 01:05:53 PM 37.9658 -82.6806 170° South 193 222 6,100 -541 Descending Indianapolis Center
Sun 01:06:54 PM 37.9136 -82.6700 171° South 192 221 5,500 -590 Descending Indianapolis Center

Login

Don't have an account? Register now (free) for customized features, flight alerts, and more!